createdAt,value
2022-12-18T00:00:15.994Z,82.266667
2022-12-18T00:05:18.513Z,83.800000
2022-12-18T00:10:21.781Z,84.733333
2022-12-18T00:15:24.312Z,85.642857
2022-12-18T00:20:26.855Z,86.200000
2022-12-18T00:25:29.051Z,87.066667
2022-12-18T00:30:31.856Z,88.000000
2022-12-18T00:35:35.223Z,88.200000
2022-12-18T00:40:17.007Z,88.266667
2022-12-18T00:45:19.544Z,89.000000
2022-12-18T00:50:22.112Z,88.866667
2022-12-18T00:55:24.729Z,88.214286
2022-12-18T01:00:27.251Z,88.200000
2022-12-18T01:05:29.935Z,88.000000
2022-12-18T01:10:32.398Z,88.000000
2022-12-18T01:15:35.257Z,88.000000
2022-12-18T01:20:17.721Z,87.400000
2022-12-18T01:25:20.416Z,87.266667
2022-12-18T01:30:23.213Z,87.857143
2022-12-18T01:35:25.449Z,88.000000
2022-12-18T01:40:28.473Z,88.000000
2022-12-18T01:45:30.566Z,88.133333
2022-12-18T01:50:33.069Z,89.000000
2022-12-18T01:55:35.794Z,89.000000
2022-12-18T02:00:18.457Z,89.266667
2022-12-18T02:05:21.188Z,90.000000
2022-12-18T02:10:23.624Z,90.000000
2022-12-18T02:15:26.336Z,90.000000
2022-12-18T02:20:28.867Z,90.000000
2022-12-18T02:25:31.531Z,90.000000
2022-12-18T02:30:34.471Z,90.000000
2022-12-18T02:35:16.720Z,90.000000
2022-12-18T02:40:19.479Z,90.866667
2022-12-18T02:45:22.009Z,91.000000
2022-12-18T02:50:24.742Z,91.142857
2022-12-18T02:55:26.926Z,92.000000
2022-12-18T03:00:29.436Z,92.000000
2022-12-18T03:05:31.702Z,92.000000
2022-12-18T03:10:33.794Z,93.000000
2022-12-18T03:15:36.012Z,93.000000
2022-12-18T03:20:17.955Z,93.000000
2022-12-18T03:25:20.384Z,93.000000
2022-12-18T03:30:22.350Z,93.000000
2022-12-18T03:35:24.585Z,93.000000
2022-12-18T03:40:26.765Z,93.000000
2022-12-18T03:45:29.142Z,93.000000
2022-12-18T03:50:31.232Z,92.600000
2022-12-18T03:55:33.818Z,92.000000
2022-12-18T04:00:35.841Z,92.000000
2022-12-18T04:05:18.184Z,92.000000
2022-12-18T04:10:20.450Z,92.000000
2022-12-18T04:15:23.319Z,92.000000
2022-12-18T04:20:25.722Z,91.266667
2022-12-18T04:25:27.970Z,91.000000
2022-12-18T04:30:30.197Z,91.000000
2022-12-18T04:35:33.407Z,91.000000
2022-12-18T04:40:35.145Z,91.000000
2022-12-18T04:45:17.410Z,91.000000
2022-12-18T04:50:19.913Z,91.000000
2022-12-18T04:55:22.036Z,91.000000
2022-12-18T05:00:24.499Z,91.000000
2022-12-18T05:05:27.618Z,90.333333
2022-12-18T05:10:34.747Z,90.000000
2022-12-18T05:15:31.506Z,90.000000
2022-12-18T05:20:34.568Z,90.000000
2022-12-18T05:25:35.919Z,90.933333
2022-12-18T05:30:18.339Z,91.000000
2022-12-18T05:35:21.077Z,91.000000
2022-12-18T05:40:23.827Z,91.000000
2022-12-18T05:45:26.691Z,90.333333
2022-12-18T05:50:29.509Z,90.000000
2022-12-18T05:55:32.150Z,90.000000
2022-12-18T06:00:34.821Z,90.000000
2022-12-18T06:05:17.098Z,90.000000
2022-12-18T06:10:21.142Z,90.200000
2022-12-18T06:15:22.508Z,91.000000
2022-12-18T06:20:29.095Z,91.000000
2022-12-18T06:25:27.699Z,91.000000
2022-12-18T06:30:30.403Z,91.466667
2022-12-18T06:35:32.732Z,92.000000
2022-12-18T06:40:35.468Z,92.000000
2022-12-18T06:45:17.856Z,92.000000
2022-12-18T06:50:20.513Z,92.000000
2022-12-18T06:55:22.986Z,92.000000
2022-12-18T07:00:25.450Z,92.000000
2022-12-18T07:05:28.463Z,92.000000
2022-12-18T07:10:30.771Z,92.000000
2022-12-18T07:15:33.091Z,92.000000
2022-12-18T07:20:36.626Z,92.000000
2022-12-18T07:25:18.487Z,92.000000
2022-12-18T07:30:21.059Z,92.000000
2022-12-18T07:35:25.393Z,92.000000
2022-12-18T07:40:25.797Z,92.000000
2022-12-18T07:45:28.787Z,92.800000
2022-12-18T07:50:31.152Z,93.000000
2022-12-18T07:55:54.731Z,93.000000
2022-12-18T08:00:16.172Z,93.000000
2022-12-18T08:05:18.623Z,93.000000
2022-12-18T08:10:20.952Z,93.000000
2022-12-18T08:15:23.787Z,93.000000
2022-12-18T08:20:26.192Z,93.000000
2022-12-18T08:25:29.053Z,93.000000
2022-12-18T08:30:31.273Z,93.000000
2022-12-18T08:35:37.079Z,93.000000
2022-12-18T08:40:16.045Z,93.000000
2022-12-18T08:45:18.624Z,93.000000
2022-12-18T08:50:21.392Z,93.000000
2022-12-18T08:55:23.936Z,93.000000
2022-12-18T09:00:26.335Z,93.000000
2022-12-18T09:05:29.064Z,93.000000
2022-12-18T09:10:31.338Z,93.133333
2022-12-18T09:15:34.187Z,94.000000
2022-12-18T09:20:16.259Z,93.933333
2022-12-18T09:25:18.780Z,93.000000
2022-12-18T09:30:21.106Z,93.000000
2022-12-18T09:35:23.675Z,93.000000
2022-12-18T09:40:26.162Z,93.000000
2022-12-18T09:45:28.458Z,93.000000
2022-12-18T09:50:31.324Z,93.000000
2022-12-18T09:55:37.341Z,93.000000
2022-12-18T10:00:35.961Z,93.000000
2022-12-18T10:05:18.560Z,93.000000
2022-12-18T10:10:21.213Z,93.000000
2022-12-18T10:15:23.523Z,93.000000
2022-12-18T10:20:25.898Z,93.000000
2022-12-18T10:25:29.209Z,93.000000
2022-12-18T10:30:30.947Z,93.000000
2022-12-18T10:35:33.123Z,93.000000
2022-12-18T10:40:35.947Z,93.000000
2022-12-18T10:45:17.746Z,93.000000
2022-12-18T10:50:20.511Z,93.000000
2022-12-18T10:55:23.292Z,93.000000
2022-12-18T11:00:25.482Z,93.000000
2022-12-18T11:05:27.961Z,93.000000
2022-12-18T11:10:30.457Z,93.000000
2022-12-18T11:15:32.525Z,93.000000
2022-12-18T11:20:34.904Z,93.000000
2022-12-18T11:25:34.512Z,93.000000
2022-12-18T11:30:19.542Z,93.000000
2022-12-18T11:35:22.050Z,93.000000
2022-12-18T11:40:24.690Z,93.000000
2022-12-18T11:45:27.238Z,93.000000
2022-12-18T11:50:29.582Z,92.666667
2022-12-18T11:55:32.549Z,92.000000
2022-12-18T12:00:35.196Z,92.000000
2022-12-18T12:05:17.369Z,92.000000
2022-12-18T12:10:19.811Z,92.000000
2022-12-18T12:15:22.137Z,92.000000
2022-12-18T12:20:24.662Z,92.000000
2022-12-18T12:25:27.268Z,92.000000
2022-12-18T12:30:29.723Z,92.000000
2022-12-18T12:35:32.284Z,92.066667
2022-12-18T12:40:52.611Z,92.000000
2022-12-18T12:45:17.375Z,92.000000
2022-12-18T12:50:19.950Z,92.000000
2022-12-18T12:55:22.477Z,92.142857
2022-12-18T13:00:25.954Z,92.000000
2022-12-18T13:05:27.833Z,92.466667
2022-12-18T13:10:30.590Z,93.000000
2022-12-18T13:15:36.737Z,93.000000
2022-12-18T13:20:35.487Z,93.000000
2022-12-18T13:25:17.655Z,93.000000
2022-12-18T13:30:20.637Z,93.000000
2022-12-18T13:35:26.395Z,93.000000
2022-12-18T13:40:25.734Z,92.866667
2022-12-18T13:45:28.556Z,91.600000
2022-12-18T13:50:35.935Z,91.000000
2022-12-18T13:55:33.216Z,91.000000
2022-12-18T14:00:36.048Z,91.000000
2022-12-18T14:05:18.501Z,91.000000
2022-12-18T14:10:56.953Z,91.000000
2022-12-18T14:15:23.985Z,91.000000
2022-12-18T14:20:26.485Z,91.000000
2022-12-18T14:25:29.472Z,91.000000
2022-12-18T14:30:31.614Z,91.000000
2022-12-18T14:35:34.023Z,91.000000
2022-12-18T14:40:16.400Z,91.000000
2022-12-18T14:45:19.505Z,91.000000
2022-12-18T14:50:22.120Z,91.000000
2022-12-18T14:55:24.636Z,91.000000
2022-12-18T15:00:27.124Z,91.933333
2022-12-18T15:05:29.795Z,92.000000
2022-12-18T15:10:32.089Z,91.600000
2022-12-18T15:15:34.933Z,91.000000
2022-12-18T15:20:16.614Z,91.000000
2022-12-18T15:25:19.525Z,91.000000
2022-12-18T15:30:21.748Z,91.000000
2022-12-18T15:35:24.449Z,90.214286
2022-12-18T15:40:27.005Z,89.066667
2022-12-18T15:45:29.583Z,89.000000
2022-12-18T15:50:32.468Z,89.000000
2022-12-18T15:55:35.074Z,89.000000
2022-12-18T16:00:16.819Z,89.133333
2022-12-18T16:05:19.404Z,89.466667
2022-12-18T16:10:22.360Z,89.000000
2022-12-18T16:15:24.938Z,89.000000
2022-12-18T16:20:26.658Z,89.000000
2022-12-18T16:25:29.757Z,88.866667
2022-12-18T16:30:34.874Z,87.666667
2022-12-18T16:35:34.310Z,86.800000
2022-12-18T16:40:16.541Z,86.800000
2022-12-18T16:45:19.312Z,86.000000
2022-12-18T16:50:22.306Z,86.000000
2022-12-18T16:55:25.094Z,86.000000
2022-12-18T17:00:27.482Z,86.000000
2022-12-18T17:05:30.056Z,85.600000
2022-12-18T17:10:32.775Z,85.933333
2022-12-18T17:15:34.960Z,86.600000
2022-12-18T17:20:17.498Z,86.933333
2022-12-18T17:25:19.824Z,87.333333
2022-12-18T17:30:22.801Z,88.000000
2022-12-18T17:35:24.660Z,88.000000
2022-12-18T17:40:27.311Z,88.000000
2022-12-18T17:45:29.927Z,87.800000
2022-12-18T17:50:32.425Z,88.000000
2022-12-18T17:55:34.803Z,88.000000
2022-12-18T18:00:17.601Z,87.466667
2022-12-18T18:05:20.010Z,86.333333
2022-12-18T18:10:22.677Z,86.000000
2022-12-18T18:15:25.207Z,85.733333
2022-12-18T18:20:27.399Z,85.000000
2022-12-18T18:25:29.731Z,84.066667
2022-12-18T18:30:32.451Z,84.333333
2022-12-18T18:35:54.938Z,83.933333
2022-12-18T18:40:17.237Z,84.466667
2022-12-18T18:45:19.694Z,84.000000
2022-12-18T18:50:22.511Z,83.071429
2022-12-18T18:55:25.647Z,83.000000
2022-12-18T19:00:27.624Z,83.000000
2022-12-18T19:05:30.226Z,81.466667
2022-12-18T19:10:32.466Z,80.333333
2022-12-18T19:15:34.974Z,79.400000
2022-12-18T19:20:17.397Z,78.000000
2022-12-18T19:25:20.018Z,77.600000
2022-12-18T19:30:22.566Z,78.642857
2022-12-18T19:35:24.804Z,77.333333
2022-12-18T19:40:27.407Z,77.000000
2022-12-18T19:45:30.131Z,76.333333
2022-12-18T19:50:32.350Z,77.066667
2022-12-18T19:55:34.763Z,78.600000
2022-12-18T20:00:19.022Z,78.933333
2022-12-18T20:05:19.717Z,77.800000
2022-12-18T20:10:22.705Z,77.928571
2022-12-18T20:15:25.106Z,76.666667
2022-12-18T20:20:27.984Z,76.133333
2022-12-18T20:25:30.173Z,75.333333
2022-12-18T20:30:33.315Z,74.600000
2022-12-18T20:35:35.376Z,73.066667
2022-12-18T20:40:17.308Z,72.933333
2022-12-18T20:45:20.375Z,72.733333
2022-12-18T20:50:22.694Z,73.000000
2022-12-18T20:55:25.298Z,73.000000
2022-12-18T21:00:27.834Z,73.933333
2022-12-18T21:05:30.651Z,73.600000
2022-12-18T21:10:33.135Z,73.466667
2022-12-18T21:15:35.591Z,73.400000
2022-12-18T21:20:18.948Z,73.133333
2022-12-18T21:25:20.388Z,72.933333
2022-12-18T21:30:23.153Z,72.071429
2022-12-18T21:35:26.087Z,72.666667
2022-12-18T21:40:28.432Z,71.533333
2022-12-18T21:45:30.747Z,71.000000
2022-12-18T21:50:33.291Z,70.466667
2022-12-18T21:55:35.621Z,69.866667
2022-12-18T22:00:18.914Z,71.800000
2022-12-18T22:05:20.906Z,73.866667
2022-12-18T22:10:23.411Z,74.428571
2022-12-18T22:15:25.990Z,73.466667
2022-12-18T22:20:29.365Z,73.333333
2022-12-18T22:25:32.585Z,73.000000
2022-12-18T22:30:35.400Z,72.800000
2022-12-18T22:35:17.744Z,73.133333
2022-12-18T22:40:24.561Z,73.933333
2022-12-18T22:45:24.207Z,75.000000
2022-12-18T22:50:26.009Z,75.000000
2022-12-18T22:55:28.450Z,75.333333
2022-12-18T23:00:24.764Z,76.000000
2022-12-18T23:05:34.542Z,75.000000
2022-12-18T23:10:22.379Z,74.928571
2022-12-18T23:15:28.058Z,75.066667
2022-12-18T23:20:27.392Z,75.000000
2022-12-18T23:25:31.181Z,75.000000
2022-12-18T23:30:33.017Z,76.000000
2022-12-18T23:35:35.499Z,76.866667
2022-12-18T23:40:17.773Z,77.000000
2022-12-18T23:45:20.437Z,78.000000
2022-12-18T23:50:29.872Z,78.500000
2022-12-18T23:55:25.657Z,79.000000
